Time;durP1;ratioP1;P1;durP2;ratioP2;P2;SDS_P1;SDS_P2;PMS_P1;PMS_P2;Temp;Humidity;BMP_temperature;BMP_pressure;BME280_temperature;BME280_humidity;BME280_pressure;Samples;Min_cycle;Max_cycle;Signal;HPM_P1;HPM_P2
2020/12/13 00:01:03;;;;;;;28.60;13.50;;;;;;;2.83;77.32;101131.73;1730688;81;21473;-81
2020/12/13 00:03:31;;;;;;;26.07;13.93;;;;;;;2.82;77.34;101128.72;1730382;81;21474;-82
2020/12/13 00:05:59;;;;;;;22.75;13.78;;;;;;;2.81;77.30;101130.91;1730272;81;21100;-81
2020/12/13 00:08:28;;;;;;;29.15;14.80;;;;;;;2.82;77.27;101124.38;1730245;81;21044;-83
2020/12/13 00:10:59;;;;;;;28.25;13.53;;;;;;;2.80;77.29;101117.11;1728740;79;21180;-83
2020/12/13 00:13:28;;;;;;;27.30;13.15;;;;;;;2.83;77.30;101118.78;1723189;82;20996;-83
2020/12/13 00:15:58;;;;;;;26.23;14.43;;;;;;;2.80;77.34;101118.41;1723285;82;20985;-85
2020/12/13 00:18:26;;;;;;;30.30;15.28;;;;;;;2.81;77.35;101121.84;1727297;80;20962;-84
2020/12/13 00:20:54;;;;;;;38.48;17.02;;;;;;;2.82;77.30;101117.91;1721936;82;21067;-84
2020/12/13 00:23:22;;;;;;;30.60;14.70;;;;;;;2.82;77.29;101107.55;1723517;82;21025;-85
2020/12/13 00:25:51;;;;;;;26.90;13.22;;;;;;;2.82;77.24;101110.14;1742963;81;21195;-84
2020/12/13 00:28:19;;;;;;;24.35;11.40;;;;;;;2.82;77.15;101107.55;1760523;80;20964;-84
2020/12/13 00:30:47;;;;;;;26.75;13.03;;;;;;;2.82;77.14;101107.55;1754300;81;20950;-85
2020/12/13 00:33:15;;;;;;;21.37;12.15;;;;;;;2.82;77.16;101108.84;1757172;81;20976;-82
2020/12/13 00:35:43;;;;;;;30.27;13.00;;;;;;;2.82;77.20;101116.61;1756392;81;20987;-83
2020/12/13 00:38:11;;;;;;;24.70;13.65;;;;;;;2.81;77.21;101098.09;1755736;80;21963;-80
2020/12/13 00:40:39;;;;;;;32.50;15.60;;;;;;;2.81;77.20;101100.67;1754516;80;20975;-84
2020/12/13 00:43:07;;;;;;;30.92;14.73;;;;;;;2.80;77.23;101092.52;1754732;80;20959;-83
2020/12/13 00:45:35;;;;;;;29.82;14.85;;;;;;;2.79;77.30;101090.79;1754779;80;21011;-81
2020/12/13 00:48:05;;;;;;;39.18;16.77;;;;;;;2.80;77.23;101092.52;1754775;79;21439;-85
2020/12/13 00:50:33;;;;;;;29.42;15.45;;;;;;;2.79;77.22;101088.20;1754663;80;22151;-81
2020/12/13 00:53:02;;;;;;;36.60;17.07;;;;;;;2.78;77.29;101092.98;1754556;80;21643;-83
2020/12/13 00:55:30;;;;;;;36.10;16.90;;;;;;;2.76;77.35;101081.80;1754693;79;21054;-84
2020/12/13 00:57:58;;;;;;;32.65;15.98;;;;;;;2.74;77.38;101081.42;1754551;80;20971;-82
2020/12/13 01:00:28;;;;;;;32.53;17.37;;;;;;;2.73;77.43;101081.00;1754727;80;20960;-82
2020/12/13 01:02:59;;;;;;;33.98;16.77;;;;;;;2.70;77.49;101081.91;1754524;80;21888;-83
2020/12/13 01:05:27;;;;;;;35.08;16.90;;;;;;;2.69;77.47;101079.77;1754563;80;21552;-83
2020/12/13 01:07:54;;;;;;;35.33;17.23;;;;;;;2.69;77.49;101078.89;1754455;80;21058;-82
2020/12/13 01:10:22;;;;;;;32.42;15.13;;;;;;;2.73;77.49;101087.47;1754582;80;21034;-83
2020/12/13 01:12:50;;;;;;;35.83;16.37;;;;;;;2.72;77.43;101078.86;1754635;81;21484;-81
2020/12/13 01:15:19;;;;;;;28.20;13.75;;;;;;;2.72;77.42;101074.13;1754637;80;20982;-82
2020/12/13 01:17:47;;;;;;;36.63;16.52;;;;;;;2.68;77.42;101082.38;1754552;81;20980;-83
2020/12/13 01:20:16;;;;;;;28.60;15.53;;;;;;;2.65;77.46;101079.42;1754439;80;20975;-84
2020/12/13 01:22:45;;;;;;;21.73;12.23;;;;;;;2.66;77.38;101079.81;1754695;81;21098;-83
2020/12/13 01:25:13;;;;;;;34.67;16.55;;;;;;;2.65;77.39;101065.62;1754752;80;21019;-84
2020/12/13 01:27:41;;;;;;;36.70;18.48;;;;;;;2.64;77.36;101080.28;1754663;79;21147;-84
2020/12/13 01:30:09;;;;;;;27.85;14.43;;;;;;;2.63;77.46;101075.16;1754597;81;21019;-86
2020/12/13 01:32:40;;;;;;;28.40;16.12;;;;;;;2.62;77.46;101079.49;1715351;81;20936;-83
2020/12/13 01:35:11;;;;;;;28.45;14.63;;;;;;;2.62;77.42;101067.84;1754805;80;20928;-83
2020/12/13 01:37:39;;;;;;;31.57;14.85;;;;;;;2.61;77.39;101074.33;1754848;81;21552;-85
2020/12/13 01:40:07;;;;;;;33.15;16.77;;;;;;;2.60;77.35;101073.91;1754828;80;21169;-83
2020/12/13 01:42:43;;;;;;;25.08;12.20;;;;;;;2.60;77.35;101072.20;1754739;81;21019;-86
2020/12/13 01:45:18;;;;;;;27.25;12.55;;;;;;;2.59;77.36;101070.47;1754820;80;21054;-87
2020/12/13 01:47:48;;;;;;;26.42;11.80;;;;;;;2.59;77.40;101068.33;1754850;79;20991;-84
2020/12/13 01:50:36;;;;;;;32.17;14.53;;;;;;;2.58;77.32;101070.48;1754930;80;21544;-83
2020/12/13 01:52:53;;;;;;;29.77;15.53;;;;;;;2.56;77.35;101080.90;1752628;79;21007;-82
2020/12/13 01:55:21;;;;;;;21.42;11.50;;;;;;;2.53;77.41;101075.76;1754877;79;21634;-84
2020/12/13 01:57:51;;;;;;;22.32;10.75;;;;;;;2.53;77.42;101087.86;1754823;80;20908;-83
2020/12/13 02:00:20;;;;;;;17.82;9.60;;;;;;;2.52;77.38;101093.94;1755767;80;20924;-82
2020/12/13 02:02:59;;;;;;;24.27;11.85;;;;;;;2.52;77.34;101081.83;1757226;81;20923;-84
2020/12/13 02:05:27;;;;;;;15.85;9.93;;;;;;;2.53;77.41;101083.97;1757862;80;21010;-81
2020/12/13 02:07:57;;;;;;;16.15;8.98;;;;;;;2.55;77.37;101086.94;1758016;79;21042;-82
2020/12/13 02:10:25;;;;;;;15.03;9.13;;;;;;;2.56;77.27;101087.82;1758098;80;21023;-80
2020/12/13 02:12:53;;;;;;;15.75;8.35;;;;;;;2.56;77.18;101087.37;1745302;80;21012;-81
2020/12/13 02:15:21;;;;;;;18.37;9.50;;;;;;;2.54;77.13;101085.70;1738389;81;20956;-84
2020/12/13 02:17:51;;;;;;;19.67;8.80;;;;;;;2.55;77.15;101093.86;1784289;78;20978;-83
2020/12/13 02:20:20;;;;;;;19.73;8.98;;;;;;;2.54;77.13;101086.99;1790853;79;20986;-84
2020/12/13 02:22:50;;;;;;;20.90;10.25;;;;;;;2.52;77.20;101075.81;1789930;79;20958;-84
2020/12/13 02:25:21;;;;;;;18.90;10.85;;;;;;;2.52;77.19;101077.11;1771770;79;21152;-83
2020/12/13 02:27:54;;;;;;;18.70;10.33;;;;;;;2.51;77.17;101077.97;1797404;79;21522;-84
2020/12/13 02:30:24;;;;;;;27.85;11.28;;;;;;;2.50;77.17;101078.42;1768969;81;21209;-82
2020/12/13 02:32:58;;;;;;;18.80;9.75;;;;;;;2.53;77.13;101080.94;1785943;79;21073;-83
2020/12/13 02:35:30;;;;;;;20.08;8.90;;;;;;;2.55;76.96;101078.33;1742934;81;20947;-84
2020/12/13 02:37:58;;;;;;;19.35;9.48;;;;;;;2.52;76.95;101070.19;1741222;81;21056;-83
2020/12/13 02:40:27;;;;;;;17.05;9.00;;;;;;;2.54;76.94;101074.89;1785758;79;21065;-85
2020/12/13 02:42:55;;;;;;;17.02;9.38;;;;;;;2.55;76.91;101077.87;1740681;81;21751;-84
2020/12/13 02:45:24;;;;;;;16.87;8.80;;;;;;;2.56;76.74;101074.88;1737907;81;20994;-84
2020/12/13 02:47:53;;;;;;;23.47;12.43;;;;;;;2.54;76.69;101083.11;1783586;79;20919;-81
2020/12/13 02:50:21;;;;;;;21.85;12.05;;;;;;;2.51;76.78;101089.62;1770754;79;20938;-85
2020/12/13 02:52:50;;;;;;;16.82;9.85;;;;;;;2.49;76.83;101090.97;1797042;79;20979;-83
2020/12/13 02:55:18;;;;;;;20.55;9.45;;;;;;;2.48;76.85;101078.44;1740235;81;21569;-83
2020/12/13 02:57:47;;;;;;;26.82;13.93;;;;;;;2.48;76.87;101091.38;1755230;80;21062;-84
2020/12/13 03:00:15;;;;;;;23.50;12.65;;;;;;;2.47;76.95;101087.55;1738675;81;20962;-82
2020/12/13 03:02:43;;;;;;;39.55;18.70;;;;;;;2.48;76.93;101082.32;1738639;81;20926;-83
2020/12/13 03:05:11;;;;;;;36.88;16.42;;;;;;;2.47;76.94;101078.05;1740269;81;21076;-84
2020/12/13 03:07:39;;;;;;;27.58;14.73;;;;;;;2.48;76.96;101081.48;1783363;79;21926;-81
2020/12/13 03:10:07;;;;;;;28.30;14.85;;;;;;;2.45;76.85;101086.28;1770868;79;20978;-84
2020/12/13 03:12:36;;;;;;;30.55;13.72;;;;;;;2.46;76.78;101080.20;1770728;79;20951;-83
2020/12/13 03:15:04;;;;;;;27.50;12.00;;;;;;;2.46;76.74;101076.77;1773127;79;20946;-83
2020/12/13 03:20:04;;;;;;;28.83;15.25;;;;;;;2.45;76.83;101092.75;1830616;75;22507;-82
2020/12/13 03:22:32;;;;;;;31.00;14.68;;;;;;;2.43;76.94;101103.56;1701146;83;21030;-82
2020/12/13 03:25:02;;;;;;;28.47;13.32;;;;;;;2.46;76.84;101115.59;1700741;83;21052;-82
2020/12/13 03:27:30;;;;;;;21.60;10.68;;;;;;;2.43;76.76;101119.09;1700719;83;21188;-81
2020/12/13 03:29:59;;;;;;;21.00;9.20;;;;;;;2.41;76.62;101093.69;1700884;83;20966;-79
2020/12/13 03:32:27;;;;;;;19.12;9.88;;;;;;;2.39;76.60;101097.19;1701372;83;20927;-83
2020/12/13 03:34:58;;;;;;;14.10;10.23;;;;;;;2.37;76.74;101087.30;1700247;83;21503;-81
2020/12/13 03:37:27;;;;;;;26.25;13.08;;;;;;;2.36;76.71;101085.61;1700552;83;21708;-80
2020/12/13 03:39:55;;;;;;;31.57;15.75;;;;;;;2.31;76.73;101075.31;1700436;83;21010;-81
2020/12/13 03:42:23;;;;;;;22.00;11.83;;;;;;;2.30;76.67;101087.85;1700478;83;20993;-80
2020/12/13 03:44:51;;;;;;;18.62;11.35;;;;;;;2.27;76.62;101096.53;1700780;83;21357;-79
2020/12/13 03:47:19;;;;;;;24.90;12.78;;;;;;;2.26;76.52;101081.02;1701005;83;20971;-82
2020/12/13 03:49:48;;;;;;;34.15;18.73;;;;;;;2.23;76.53;101092.28;1700697;83;21660;-79
2020/12/13 03:52:16;;;;;;;53.05;22.27;;;;;;;2.21;76.69;101096.62;1700339;83;20990;-77
2020/12/13 03:54:44;;;;;;;42.48;19.85;;;;;;;2.20;76.76;101096.65;1700542;83;21014;-80
2020/12/13 03:57:14;;;;;;;42.80;21.65;;;;;;;2.19;76.76;101098.84;1700863;83;21502;-77
2020/12/13 03:59:43;;;;;;;34.55;18.23;;;;;;;2.16;76.75;101095.02;1700703;83;21052;-81
2020/12/13 04:02:11;;;;;;;24.27;13.15;;;;;;;2.15;76.68;101090.27;1700754;83;21132;-82
2020/12/13 04:04:39;;;;;;;28.45;13.95;;;;;;;2.15;76.56;101094.14;1700454;83;20974;-79
2020/12/13 04:07:08;;;;;;;32.48;15.65;;;;;;;2.12;76.60;101092.92;1700843;83;20982;-80
2020/12/13 04:09:36;;;;;;;32.42;17.12;;;;;;;2.08;76.71;101084.79;1700679;83;21412;-81
2020/12/13 04:12:04;;;;;;;36.98;21.07;;;;;;;2.07;76.59;101087.83;1701360;83;21038;-80
2020/12/13 04:14:32;;;;;;;37.90;20.85;;;;;;;2.05;76.58;101092.17;1701580;83;21475;-78
2020/12/13 04:17:00;;;;;;;36.77;18.75;;;;;;;2.04;76.64;101085.72;1703287;83;21066;-78
2020/12/13 04:19:31;;;;;;;30.70;15.60;;;;;;;2.07;76.53;101093.00;1703199;83;20974;-79
2020/12/13 04:22:02;;;;;;;33.63;18.45;;;;;;;2.07;76.41;101098.17;1699729;81;21034;-80
2020/12/13 04:24:30;;;;;;;38.80;20.02;;;;;;;2.05;76.27;101098.64;1693511;82;20962;-80
2020/12/13 04:26:58;;;;;;;47.20;23.05;;;;;;;2.01;76.35;101103.89;1694559;83;21887;-80
2020/12/13 04:29:27;;;;;;;41.30;20.17;;;;;;;1.98;76.44;101104.80;1671691;83;20982;-79
2020/12/13 04:31:54;;;;;;;33.67;18.95;;;;;;;1.97;76.47;101104.37;1696327;83;21006;-78
2020/12/13 04:34:23;;;;;;;33.83;16.62;;;;;;;1.96;76.33;101083.72;1696341;82;21037;-78
2020/12/13 04:36:51;;;;;;;34.80;16.23;;;;;;;1.94;76.29;101089.36;1696052;82;21139;-79
2020/12/13 04:39:18;;;;;;;40.38;18.57;;;;;;;1.93;76.28;101086.34;1696529;82;21155;-78
2020/12/13 04:41:47;;;;;;;39.85;19.82;;;;;;;1.89;76.30;101078.22;1696521;82;21252;-77
2020/12/13 04:44:15;;;;;;;39.83;22.60;;;;;;;1.85;76.40;101081.31;1673839;83;21099;-78
2020/12/13 04:46:45;;;;;;;36.65;19.85;;;;;;;1.83;76.35;101078.74;1697657;82;20955;-78
2020/12/13 04:49:13;;;;;;;34.73;19.57;;;;;;;1.79;76.48;101073.20;1696567;83;20899;-78
2020/12/13 04:51:42;;;;;;;31.77;16.20;;;;;;;1.79;76.47;101082.70;1696027;83;21171;-78
2020/12/13 04:54:10;;;;;;;35.50;15.78;;;;;;;1.81;76.48;101092.13;1693711;82;20986;-79
2020/12/13 04:56:41;;;;;;;32.05;14.40;;;;;;;1.83;76.41;101108.48;1717984;82;20969;-78
2020/12/13 04:59:08;;;;;;;36.53;16.62;;;;;;;1.86;76.37;101107.57;1692486;82;21467;-78
2020/12/13 05:01:36;;;;;;;25.75;14.68;;;;;;;1.85;76.32;101104.14;1693817;83;21050;-79
2020/12/13 05:04:04;;;;;;;29.75;16.23;;;;;;;1.82;76.21;101110.67;1693688;83;22693;-78
2020/12/13 05:06:32;;;;;;;27.40;15.10;;;;;;;1.80;76.14;101101.20;1693617;82;20927;-78
2020/12/13 05:09:01;;;;;;;28.80;15.08;;;;;;;1.76;76.06;101109.91;1692145;83;20967;-79
2020/12/13 05:11:28;;;;;;;25.30;13.00;;;;;;;1.74;76.02;101119.42;1692285;83;21030;-79
2020/12/13 05:13:57;;;;;;;19.52;11.20;;;;;;;1.73;76.05;101125.45;1693624;82;21006;-78
2020/12/13 05:16:24;;;;;;;24.07;13.45;;;;;;;1.72;76.05;101118.59;1693658;83;21170;-78
2020/12/13 05:18:53;;;;;;;29.40;17.50;;;;;;;1.68;76.10;101119.05;1693525;83;20955;-79
2020/12/13 05:21:24;;;;;;;27.27;15.45;;;;;;;1.66;76.12;101113.90;1693490;83;20967;-79
2020/12/13 05:23:52;;;;;;;23.05;13.62;;;;;;;1.64;76.06;101113.06;1702824;82;20906;-79
2020/12/13 05:26:21;;;;;;;19.85;12.13;;;;;;;1.65;76.06;101117.83;1747172;81;20993;-79
2020/12/13 05:28:52;;;;;;;26.40;11.38;;;;;;;1.68;76.05;101121.64;1747186;81;21735;-80
2020/12/13 05:31:23;;;;;;;31.10;15.48;;;;;;;1.70;75.98;101141.02;1749853;82;20957;-79
2020/12/13 05:33:55;;;;;;;32.13;17.17;;;;;;;1.69;76.03;101132.83;1685303;83;20991;-79
2020/12/13 05:36:22;;;;;;;36.42;18.35;;;;;;;1.71;76.02;101139.69;1708987;82;21549;-78
2020/12/13 05:38:50;;;;;;;36.48;20.40;;;;;;;1.70;76.08;101133.27;1721094;82;21064;-81
2020/12/13 05:41:18;;;;;;;33.65;16.52;;;;;;;1.71;76.19;101139.69;1685446;83;21264;-80
2020/12/13 05:43:51;;;;;;;33.10;16.73;;;;;;;1.78;76.02;101143.91;1670950;84;21062;-79
2020/12/13 05:46:47;;;;;;;33.30;16.27;;;;;;;1.83;75.91;101145.13;1655727;85;21499;-80
2020/12/13 05:49:16;;;;;;;32.45;16.27;;;;;;;1.84;75.84;101135.19;1745230;82;21103;-80
2020/12/13 05:51:38;;;;;;;31.77;17.45;;;;;;;1.83;75.42;101137.38;1745492;82;20945;-80
2020/12/13 05:54:18;;;;;;;33.02;17.40;;;;;;;1.79;75.39;101143.46;1722520;82;22113;-80
2020/12/13 05:56:40;;;;;;;31.15;15.28;;;;;;;1.76;75.41;101140.94;1683869;83;21528;-81
2020/12/13 05:59:08;;;;;;;26.42;14.03;;;;;;;1.73;75.38;101134.50;1670879;84;21467;-79
2020/12/13 06:01:38;;;;;;;31.23;16.65;;;;;;;1.74;75.31;101128.47;1685922;84;21055;-79
2020/12/13 06:04:13;;;;;;;42.45;21.37;;;;;;;1.74;75.36;101128.47;1651268;83;21050;-80
2020/12/13 06:06:44;;;;;;;48.50;21.90;;;;;;;1.72;75.44;101122.02;1709017;83;21266;-78
2020/12/13 06:09:13;;;;;;;51.42;26.20;;;;;;;1.74;75.35;101122.00;1684966;83;21539;-81
2020/12/13 06:11:46;;;;;;;44.05;22.65;;;;;;;1.74;75.32;101115.54;1722473;82;21507;-79
2020/12/13 06:14:20;;;;;;;51.28;26.30;;;;;;;1.73;75.31;101118.54;1722402;82;20933;-79
2020/12/13 06:16:50;;;;;;;39.33;21.17;;;;;;;1.74;75.30;101114.25;1747250;82;21391;-80
2020/12/13 06:19:24;;;;;;;34.25;17.52;;;;;;;1.77;75.27;101114.19;1747223;81;21960;-81
2020/12/13 06:21:57;;;;;;;31.35;18.37;;;;;;;1.80;75.12;101119.30;1699493;82;20974;-80
2020/12/13 06:24:26;;;;;;;46.18;23.47;;;;;;;1.77;75.13;101124.08;1685170;83;21074;-81
2020/12/13 06:26:55;;;;;;;59.40;29.10;;;;;;;1.78;75.06;101117.17;1665743;84;21082;-81
2020/12/13 06:29:25;;;;;;;53.00;29.87;;;;;;;1.76;75.05;101118.52;1664820;78;21146;-82
2020/12/13 06:31:54;;;;;;;59.38;25.65;;;;;;;1.77;74.96;101118.06;1652163;85;21011;-81
2020/12/13 06:34:22;;;;;;;41.28;20.37;;;;;;;1.78;74.74;101117.17;1652171;85;21068;-80
2020/12/13 06:36:53;;;;;;;32.65;17.87;;;;;;;1.78;74.73;101106.83;1652125;85;21040;-81
2020/12/13 06:39:24;;;;;;;33.83;16.50;;;;;;;1.77;74.63;101100.81;1610458;85;21072;-81
2020/12/13 06:42:01;;;;;;;34.65;17.62;;;;;;;1.76;74.65;101114.63;1652330;85;20969;-78
2020/12/13 06:44:31;;;;;;;35.75;18.95;;;;;;;1.75;74.62;101125.83;1610350;85;21265;-82
2020/12/13 06:46:59;;;;;;;36.25;22.22;;;;;;;1.71;74.76;101120.73;1651723;85;21100;-78
2020/12/13 06:49:28;;;;;;;31.05;18.12;;;;;;;1.66;75.00;101125.53;1629793;85;20977;-79
2020/12/13 06:51:58;;;;;;;36.53;17.90;;;;;;;1.68;75.00;101125.52;1651741;85;21729;-81
2020/12/13 06:54:26;;;;;;;37.80;19.87;;;;;;;1.68;75.02;101125.52;1652197;85;20974;-80
2020/12/13 06:56:56;;;;;;;41.33;21.95;;;;;;;1.65;75.12;101127.72;1651958;85;22343;-79
2020/12/13 06:59:26;;;;;;;40.10;21.73;;;;;;;1.65;75.09;101128.16;1651963;85;20958;-79
2020/12/13 07:01:56;;;;;;;55.88;27.37;;;;;;;1.62;75.05;101140.70;1652104;85;20965;-79
2020/12/13 07:04:47;;;;;;;40.40;21.15;;;;;;;1.60;75.22;101136.41;1651961;85;21542;-81
2020/12/13 07:07:23;;;;;;;38.05;23.32;;;;;;;1.62;75.35;101146.28;1647405;85;21072;-80
2020/12/13 07:09:51;;;;;;;60.78;25.35;;;;;;;1.61;75.51;101136.84;1652168;85;21326;-79
2020/12/13 07:12:19;;;;;;;58.20;28.57;;;;;;;1.60;75.79;101146.74;1630221;85;21076;-79
2020/12/13 07:14:52;;;;;;;49.83;26.68;;;;;;;1.61;75.95;101145.44;1651967;85;20998;-80
2020/12/13 07:17:20;;;;;;;39.27;22.65;;;;;;;1.61;76.27;101155.78;1652166;85;21056;-79
2020/12/13 07:19:50;;;;;;;38.73;21.77;;;;;;;1.57;76.41;101146.36;1650677;85;21053;-79
2020/12/13 07:22:18;;;;;;;34.43;19.35;;;;;;;1.57;76.61;101148.09;1630163;85;22894;-80
2020/12/13 07:24:49;;;;;;;32.28;18.15;;;;;;;1.56;76.94;101146.40;1651223;85;21435;-78
2020/12/13 07:27:17;;;;;;;43.95;21.07;;;;;;;1.52;76.97;101152.03;1652145;85;20969;-80
2020/12/13 07:29:50;;;;;;;50.15;26.37;;;;;;;1.49;77.00;101145.63;1608914;84;21415;-80
2020/12/13 07:32:18;;;;;;;42.20;23.27;;;;;;;1.46;77.08;101135.31;1655533;80;21034;-80
2020/12/13 07:34:49;;;;;;;49.75;23.98;;;;;;;1.45;77.34;101138.79;1655026;84;21193;-81
2020/12/13 07:37:20;;;;;;;40.75;18.95;;;;;;;1.45;77.31;101140.93;1677117;84;21005;-81
2020/12/13 07:39:49;;;;;;;41.02;20.08;;;;;;;1.48;77.18;101148.22;1655013;84;20997;-81
2020/12/13 07:42:17;;;;;;;45.58;21.82;;;;;;;1.49;77.21;101140.88;1677200;84;20981;-80
2020/12/13 07:44:50;;;;;;;43.92;22.82;;;;;;;1.52;77.25;101143.44;1677598;84;20966;-81
2020/12/13 07:47:23;;;;;;;50.78;25.55;;;;;;;1.54;77.29;101130.91;1700600;83;21443;-83
2020/12/13 07:50:04;;;;;;;47.40;21.77;;;;;;;1.59;77.26;101129.09;1677573;84;20982;-82
2020/12/13 07:52:35;;;;;;;50.17;24.63;;;;;;;1.61;77.35;101136.39;1677600;84;21049;-80
2020/12/13 07:55:06;;;;;;;43.38;23.55;;;;;;;1.61;77.21;101135.55;1679266;82;21058;-83
2020/12/13 07:57:35;;;;;;;42.75;20.37;;;;;;;1.66;77.18;101128.56;1678325;84;21005;-82
2020/12/13 08:00:08;;;;;;;46.90;19.87;;;;;;;1.70;77.06;101144.45;1677871;84;21183;-82
2020/12/13 08:02:38;;;;;;;46.42;21.80;;;;;;;1.72;76.89;101139.27;1679845;84;21005;-84
2020/12/13 08:05:07;;;;;;;55.33;29.55;;;;;;;1.72;76.84;101132.80;1679820;84;20942;-82
2020/12/13 08:07:34;;;;;;;48.78;25.97;;;;;;;1.73;76.87;101144.84;1680350;84;20989;-82
2020/12/13 08:10:02;;;;;;;50.33;25.88;;;;;;;1.73;76.76;101143.10;1680696;81;21013;-82
2020/12/13 08:12:38;;;;;;;43.60;23.25;;;;;;;1.75;76.81;101141.34;1680520;81;21172;-80
2020/12/13 08:15:05;;;;;;;30.57;18.12;;;;;;;1.77;76.42;101152.97;1679747;83;21001;-80
2020/12/13 08:17:41;;;;;;;38.83;19.05;;;;;;;1.76;76.33;101143.52;1678158;83;21025;-80
2020/12/13 08:20:12;;;;;;;38.15;20.80;;;;;;;1.76;76.42;101149.54;1687382;84;21620;-81
2020/12/13 08:22:42;;;;;;;37.63;19.32;;;;;;;1.77;76.44;101141.34;1687463;84;21019;-84
2020/12/13 08:25:11;;;;;;;40.83;22.62;;;;;;;1.80;76.33;101142.56;1703926;83;21384;-82
2020/12/13 08:27:39;;;;;;;42.53;20.35;;;;;;;1.81;76.45;101130.08;1651736;84;20972;-81
2020/12/13 08:30:08;;;;;;;42.25;21.25;;;;;;;1.87;76.24;101135.16;1660876;85;20976;-84
2020/12/13 08:32:37;;;;;;;38.05;19.10;;;;;;;1.90;76.12;101123.91;1688291;83;20969;-83
2020/12/13 08:35:17;;;;;;;31.27;17.65;;;;;;;1.95;75.98;101115.17;1686851;83;20973;-82
2020/12/13 08:37:58;;;;;;;42.35;23.15;;;;;;;2.01;75.74;101107.32;1686567;83;21181;-84
2020/12/13 08:40:38;;;;;;;53.90;28.12;;;;;;;2.01;75.69;101110.36;1685505;83;20977;-83
2020/12/13 08:43:06;;;;;;;55.85;28.65;;;;;;;2.01;75.76;101100.01;1686756;83;20999;-82
2020/12/13 08:45:35;;;;;;;57.58;29.52;;;;;;;2.01;75.74;101109.06;1687731;82;21088;-83
2020/12/13 08:48:05;;;;;;;42.43;21.15;;;;;;;2.00;75.54;101108.22;1686112;83;21021;-82
2020/12/13 08:50:42;;;;;;;35.03;20.02;;;;;;;2.01;75.35;101089.22;1687013;83;21016;-82
2020/12/13 08:53:25;;;;;;;44.05;21.52;;;;;;;2.03;75.31;101095.22;1686926;83;21100;-84
2020/12/13 08:56:09;;;;;;;45.52;22.48;;;;;;;2.05;75.41;101097.34;1688380;82;21037;-84
2020/12/13 08:58:51;;;;;;;45.08;24.47;;;;;;;2.08;75.43;101086.08;1687522;83;20966;-84
2020/12/13 09:01:23;;;;;;;46.50;23.22;;;;;;;2.13;75.51;101081.67;1687380;83;20962;-85
2020/12/13 09:03:50;;;;;;;53.92;24.70;;;;;;;2.20;75.22;101086.30;1687039;83;21662;-84
2020/12/13 09:06:32;;;;;;;49.85;24.52;;;;;;;2.20;75.05;101080.70;1686916;82;20973;-83
2020/12/13 09:09:16;;;;;;;50.30;22.82;;;;;;;2.18;75.05;101079.00;1687738;83;20961;-82
2020/12/13 09:11:59;;;;;;;48.68;21.30;;;;;;;2.19;75.09;101072.97;1714331;82;21107;-85
2020/12/13 09:14:34;;;;;;;38.65;21.02;;;;;;;2.22;75.19;101077.66;1687656;83;21116;-84
2020/12/13 09:17:03;;;;;;;47.50;25.32;;;;;;;2.22;75.31;101071.60;1687426;83;21001;-83
2020/12/13 09:19:33;;;;;;;64.15;33.40;;;;;;;2.22;75.40;101063.42;1688398;83;21044;-86
2020/12/13 09:22:06;;;;;;;58.40;30.15;;;;;;;2.20;75.48;101058.72;1687960;82;20981;-81
2020/12/13 09:24:38;;;;;;;46.35;23.50;;;;;;;2.18;75.85;101055.30;1687420;83;20988;-79
2020/12/13 09:27:11;;;;;;;42.53;20.90;;;;;;;2.14;75.90;101040.71;1687677;82;21451;-79
2020/12/13 09:29:39;;;;;;;31.65;17.17;;;;;;;2.14;76.04;101047.63;1687292;83;21872;-80
2020/12/13 09:32:09;;;;;;;31.50;18.82;;;;;;;2.14;76.10;101045.88;1686595;83;20981;-78
2020/12/13 09:34:38;;;;;;;46.15;22.27;;;;;;;2.17;76.29;101062.63;1696006;82;20949;-79
2020/12/13 09:37:10;;;;;;;43.00;24.23;;;;;;;2.18;76.21;101065.66;1698620;82;20961;-78
2020/12/13 09:39:38;;;;;;;54.90;27.40;;;;;;;2.19;76.24;101062.62;1723876;79;20981;-77
2020/12/13 09:42:10;;;;;;;39.70;21.10;;;;;;;2.20;76.33;101063.02;1810993;77;20966;-77
2020/12/13 09:44:40;;;;;;;34.60;18.30;;;;;;;2.20;76.31;101066.89;1784313;79;20986;-79
2020/12/13 09:47:10;;;;;;;28.40;15.78;;;;;;;2.22;76.25;101056.08;1784358;79;20951;-78
2020/12/13 09:49:40;;;;;;;36.48;19.67;;;;;;;2.20;76.24;101048.37;1784516;79;20959;-78
2020/12/13 09:52:10;;;;;;;37.38;22.27;;;;;;;2.19;76.50;101044.05;1730471;79;20946;-78
2020/12/13 09:54:43;;;;;;;54.35;25.37;;;;;;;2.22;76.53;101045.31;1784371;79;21220;-77
2020/12/13 09:57:12;;;;;;;50.75;24.67;;;;;;;2.25;76.54;101043.10;1784742;79;20973;-78
2020/12/13 09:59:40;;;;;;;48.42;25.15;;;;;;;2.28;76.47;101063.28;1759071;79;20946;-81
2020/12/13 10:02:11;;;;;;;45.03;22.55;;;;;;;2.31;76.36;101049.88;1784371;79;20935;-81
2020/12/13 10:04:41;;;;;;;39.58;19.90;;;;;;;2.34;76.23;101061.48;1784628;79;20942;-81
2020/12/13 10:09:50;;;;;;;41.05;22.37;;;;;;;2.42;76.17;101068.23;1784407;79;21499;-82
2020/12/13 10:12:22;;;;;;;41.42;20.55;;;;;;;2.44;76.06;101051.35;1784560;79;20887;-80
2020/12/13 10:14:51;;;;;;;41.90;22.35;;;;;;;2.45;76.01;101051.33;1784671;79;21470;-81
2020/12/13 10:17:21;;;;;;;42.58;23.62;;;;;;;2.46;75.99;101043.96;1784530;79;20930;-79
2020/12/13 10:19:52;;;;;;;44.08;22.50;;;;;;;2.46;75.94;101045.26;1784438;79;21161;-79
2020/12/13 10:22:20;;;;;;;36.98;19.05;;;;;;;2.48;75.74;101042.65;1784411;79;20970;-80
2020/12/13 10:25:03;;;;;;;40.78;20.90;;;;;;;2.49;75.46;101040.49;1784651;79;21491;-83
2020/12/13 10:27:34;;;;;;;38.15;20.57;;;;;;;2.49;75.60;101048.25;1784399;79;20911;-80
2020/12/13 10:30:03;;;;;;;40.30;23.60;;;;;;;2.47;75.53;101037.08;1784328;79;21587;-78
2020/12/13 10:32:31;;;;;;;36.77;23.25;;;;;;;2.45;75.67;101037.09;1785098;79;21182;-81
2020/12/13 10:35:02;;;;;;;40.40;21.57;;;;;;;2.46;75.72;101054.31;1785189;79;20923;-79
2020/12/13 10:37:30;;;;;;;42.10;21.95;;;;;;;2.46;75.61;101047.84;1784464;79;20947;-82
2020/12/13 10:40:02;;;;;;;35.03;18.35;;;;;;;2.46;75.70;101049.14;1784177;79;21668;-81
2020/12/13 10:42:30;;;;;;;26.85;15.70;;;;;;;2.51;75.48;101064.58;1751756;78;20958;-77
2020/12/13 10:44:59;;;;;;;43.58;17.25;;;;;;;2.51;75.30;101051.64;1716646;82;21036;-77
2020/12/13 10:47:27;;;;;;;35.90;18.92;;;;;;;2.51;75.46;101054.67;1716849;82;21686;-78
2020/12/13 10:49:56;;;;;;;38.85;21.10;;;;;;;2.52;75.46;101055.10;1716825;82;21014;-78
2020/12/13 10:52:25;;;;;;;44.13;22.50;;;;;;;2.55;75.55;101053.73;1716675;82;21061;-77
2020/12/13 10:54:54;;;;;;;49.03;23.10;;;;;;;2.60;75.42;101048.02;1716880;82;20971;-77
2020/12/13 10:57:25;;;;;;;53.35;27.80;;;;;;;2.62;75.23;101041.95;1716791;82;21134;-79
2020/12/13 10:59:56;;;;;;;45.12;24.50;;;;;;;2.66;75.04;101050.48;1718014;82;21014;-78
2020/12/13 11:02:23;;;;;;;42.62;22.10;;;;;;;2.70;75.00;101046.50;1716821;82;20939;-77
2020/12/13 11:04:55;;;;;;;36.83;18.30;;;;;;;2.76;74.97;101051.14;1716810;82;21519;-76
2020/12/13 11:07:23;;;;;;;48.50;23.15;;;;;;;2.78;74.90;101046.36;1716760;82;21115;-78
2020/12/13 11:09:53;;;;;;;47.70;23.52;;;;;;;2.76;74.89;101037.77;1716763;82;21109;-77
2020/12/13 11:12:21;;;;;;;51.00;24.30;;;;;;;2.75;74.89;101047.70;1716704;82;21528;-78
2020/12/13 11:14:48;;;;;;;45.20;23.75;;;;;;;2.75;74.78;101054.63;1716789;82;20967;-78
2020/12/13 11:17:16;;;;;;;52.03;25.32;;;;;;;2.74;74.83;101059.41;1716820;82;21053;-78
2020/12/13 11:19:44;;;;;;;46.15;21.37;;;;;;;2.73;74.81;101065.01;1718017;82;21045;-80
2020/12/13 11:22:13;;;;;;;40.05;18.65;;;;;;;2.73;74.73;101062.42;1716685;82;21228;-82
2020/12/13 11:24:41;;;;;;;35.92;17.07;;;;;;;2.74;74.70;101055.53;1716731;82;20970;-77
2020/12/13 11:27:09;;;;;;;38.65;17.92;;;;;;;2.74;74.77;101055.08;1716556;82;21033;-77
2020/12/13 11:29:37;;;;;;;34.10;20.27;;;;;;;2.76;74.80;101055.91;1716577;82;21014;-76
2020/12/13 11:32:05;;;;;;;50.20;26.17;;;;;;;2.76;74.85;101057.61;1716816;82;21058;-75
2020/12/13 11:34:33;;;;;;;44.45;22.77;;;;;;;2.76;74.69;101052.02;1716788;82;21163;-76